sensor_id;sensor_type;location;lat;lon;timestamp;P1;durP1;ratioP1;P2;durP2;ratioP2
46330;SDS011;32049;52.346;4.870;2022-07-29T02:07:24;4.40;;;1.47;;
46330;SDS011;32049;52.346;4.870;2022-07-29T02:10:17;4.50;;;1.40;;
46330;SDS011;32049;52.346;4.870;2022-07-29T02:13:15;1.40;;;1.23;;
46330;SDS011;32049;52.346;4.870;2022-07-29T02:16:07;2.20;;;1.30;;
46330;SDS011;32049;52.346;4.870;2022-07-29T02:19:00;3.40;;;1.40;;
46330;SDS011;32049;52.346;4.870;2022-07-29T02:24:57;3.97;;;1.60;;
46330;SDS011;32049;52.346;4.870;2022-07-29T02:27:59;2.30;;;1.60;;
46330;SDS011;32049;52.346;4.870;2022-07-29T02:30:55;3.00;;;1.37;;
46330;SDS011;32049;52.346;4.870;2022-07-29T02:33:58;2.70;;;1.40;;
46330;SDS011;32049;52.346;4.870;2022-07-29T02:36:57;2.73;;;1.23;;
46330;SDS011;32049;52.346;4.870;2022-07-29T02:39:53;4.40;;;1.50;;
46330;SDS011;32049;52.346;4.870;2022-07-29T02:42:47;2.60;;;1.43;;
46330;SDS011;32049;52.346;4.870;2022-07-29T02:45:36;3.70;;;1.50;;
46330;SDS011;32049;52.346;4.870;2022-07-29T02:48:47;3.53;;;1.53;;
46330;SDS011;32049;52.346;4.870;2022-07-29T02:51:46;2.47;;;1.67;;
46330;SDS011;32049;52.346;4.870;2022-07-29T02:54:44;6.47;;;1.40;;
46330;SDS011;32049;52.346;4.870;2022-07-29T02:57:40;3.10;;;1.85;;
46330;SDS011;32049;52.346;4.870;2022-07-29T03:00:41;6.47;;;1.70;;
46330;SDS011;32049;52.346;4.870;2022-07-29T03:03:32;2.37;;;1.30;;
46330;SDS011;32049;52.346;4.870;2022-07-29T03:06:34;3.20;;;1.30;;
46330;SDS011;32049;52.346;4.870;2022-07-29T03:09:26;4.10;;;1.20;;
46330;SDS011;32049;52.346;4.870;2022-07-29T03:12:15;4.10;;;1.70;;
46330;SDS011;32049;52.346;4.870;2022-07-29T03:15:05;5.67;;;1.60;;
46330;SDS011;32049;52.346;4.870;2022-07-29T03:18:14;3.43;;;1.33;;
46330;SDS011;32049;52.346;4.870;2022-07-29T03:21:08;3.97;;;1.53;;
46330;SDS011;32049;52.346;4.870;2022-07-29T03:24:00;3.03;;;1.30;;
46330;SDS011;32049;52.346;4.870;2022-07-29T03:26:56;2.10;;;1.40;;
46330;SDS011;32049;52.346;4.870;2022-07-29T03:29:55;3.77;;;1.43;;
46330;SDS011;32049;52.346;4.870;2022-07-29T03:32:42;2.30;;;1.27;;
46330;SDS011;32049;52.346;4.870;2022-07-29T03:35:31;2.43;;;1.10;;
46330;SDS011;32049;52.346;4.870;2022-07-29T03:38:31;2.90;;;1.20;;
46330;SDS011;32049;52.346;4.870;2022-07-29T03:41:35;3.17;;;1.40;;
46330;SDS011;32049;52.346;4.870;2022-07-29T03:44:26;2.90;;;1.37;;
46330;SDS011;32049;52.346;4.870;2022-07-29T03:47:16;3.00;;;1.30;;
46330;SDS011;32049;52.346;4.870;2022-07-29T03:50:30;3.07;;;1.27;;
46330;SDS011;32049;52.346;4.870;2022-07-29T03:53:21;2.90;;;1.17;;
46330;SDS011;32049;52.346;4.870;2022-07-29T03:56:17;2.30;;;1.13;;
46330;SDS011;32049;52.346;4.870;2022-07-29T03:59:14;4.90;;;1.40;;
46330;SDS011;32049;52.346;4.870;2022-07-29T04:02:31;2.07;;;1.30;;
46330;SDS011;32049;52.346;4.870;2022-07-29T05:40:02;2.67;;;1.57;;
46330;SDS011;32049;52.346;4.870;2022-07-29T05:43:02;2.75;;;1.40;;
46330;SDS011;32049;52.346;4.870;2022-07-29T05:45:54;3.00;;;1.63;;
46330;SDS011;32049;52.346;4.870;2022-07-29T05:48:43;5.00;;;2.07;;
46330;SDS011;32049;52.346;4.870;2022-07-29T05:51:33;6.93;;;1.40;;
46330;SDS011;32049;52.346;4.870;2022-07-29T05:54:27;3.07;;;1.40;;
46330;SDS011;32049;52.346;4.870;2022-07-29T05:57:21;7.97;;;2.23;;
46330;SDS011;32049;52.346;4.870;2022-07-29T06:00:16;5.27;;;1.90;;
46330;SDS011;32049;52.346;4.870;2022-07-29T06:03:12;4.67;;;1.53;;
46330;SDS011;32049;52.346;4.870;2022-07-29T06:06:00;4.17;;;1.60;;
46330;SDS011;32049;52.346;4.870;2022-07-29T06:08:51;3.57;;;1.50;;
46330;SDS011;32049;52.346;4.870;2022-07-29T06:11:41;4.13;;;1.57;;
46330;SDS011;32049;52.346;4.870;2022-07-29T06:14:42;3.37;;;1.27;;
46330;SDS011;32049;52.346;4.870;2022-07-29T06:17:33;2.33;;;1.50;;
46330;SDS011;32049;52.346;4.870;2022-07-29T06:20:25;5.03;;;1.53;;
46330;SDS011;32049;52.346;4.870;2022-07-29T06:23:24;20.07;;;2.30;;
46330;SDS011;32049;52.346;4.870;2022-07-29T06:26:17;4.00;;;1.33;;
46330;SDS011;32049;52.346;4.870;2022-07-29T06:29:17;3.80;;;1.70;;
46330;SDS011;32049;52.346;4.870;2022-07-29T06:32:05;3.73;;;1.57;;
46330;SDS011;32049;52.346;4.870;2022-07-29T06:35:00;6.37;;;1.90;;
46330;SDS011;32049;52.346;4.870;2022-07-29T06:38:02;6.13;;;1.53;;
46330;SDS011;32049;52.346;4.870;2022-07-29T06:41:16;6.03;;;1.37;;
46330;SDS011;32049;52.346;4.870;2022-07-29T06:44:14;2.40;;;1.50;;
46330;SDS011;32049;52.346;4.870;2022-07-29T06:47:05;3.63;;;1.50;;
46330;SDS011;32049;52.346;4.870;2022-07-29T06:49:56;2.53;;;1.60;;
46330;SDS011;32049;52.346;4.870;2022-07-29T06:52:49;4.30;;;1.43;;
46330;SDS011;32049;52.346;4.870;2022-07-29T06:55:39;8.37;;;2.60;;
46330;SDS011;32049;52.346;4.870;2022-07-29T06:58:44;7.95;;;2.35;;
46330;SDS011;32049;52.346;4.870;2022-07-29T07:01:48;3.43;;;1.60;;
46330;SDS011;32049;52.346;4.870;2022-07-29T07:04:48;2.17;;;1.40;;
46330;SDS011;32049;52.346;4.870;2022-07-29T07:07:38;3.93;;;1.40;;
46330;SDS011;32049;52.346;4.870;2022-07-29T07:10:49;4.97;;;1.50;;
46330;SDS011;32049;52.346;4.870;2022-07-29T07:13:49;5.43;;;1.77;;
46330;SDS011;32049;52.346;4.870;2022-07-29T07:16:49;4.80;;;1.80;;
46330;SDS011;32049;52.346;4.870;2022-07-29T07:19:40;5.67;;;2.10;;
46330;SDS011;32049;52.346;4.870;2022-07-29T07:22:50;4.07;;;1.93;;
46330;SDS011;32049;52.346;4.870;2022-07-29T07:25:44;3.97;;;1.97;;
46330;SDS011;32049;52.346;4.870;2022-07-29T07:28:48;3.77;;;1.90;;
46330;SDS011;32049;52.346;4.870;2022-07-29T07:31:43;6.10;;;1.90;;
46330;SDS011;32049;52.346;4.870;2022-07-29T07:35:05;4.40;;;1.73;;
46330;SDS011;32049;52.346;4.870;2022-07-29T07:37:56;5.50;;;1.70;;
46330;SDS011;32049;52.346;4.870;2022-07-29T07:48:03;3.10;;;1.77;;
46330;SDS011;32049;52.346;4.870;2022-07-29T07:51:08;2.17;;;1.33;;
46330;SDS011;32049;52.346;4.870;2022-07-29T07:54:05;3.50;;;1.70;;
46330;SDS011;32049;52.346;4.870;2022-07-29T07:57:14;4.17;;;1.83;;
46330;SDS011;32049;52.346;4.870;2022-07-29T08:26:23;5.75;;;1.60;;
46330;SDS011;32049;52.346;4.870;2022-07-29T08:29:15;4.97;;;1.77;;
46330;SDS011;32049;52.346;4.870;2022-07-29T08:32:10;5.45;;;2.00;;
46330;SDS011;32049;52.346;4.870;2022-07-29T08:35:25;3.67;;;1.70;;
46330;SDS011;32049;52.346;4.870;2022-07-29T08:38:21;6.10;;;1.73;;
46330;SDS011;32049;52.346;4.870;2022-07-29T08:41:18;3.97;;;1.90;;
46330;SDS011;32049;52.346;4.870;2022-07-29T08:44:17;2.97;;;1.90;;
46330;SDS011;32049;52.346;4.870;2022-07-29T08:47:17;3.50;;;1.67;;
46330;SDS011;32049;52.346;4.870;2022-07-29T08:50:06;6.50;;;1.67;;
46330;SDS011;32049;52.346;4.870;2022-07-29T08:53:00;6.20;;;1.90;;
46330;SDS011;32049;52.346;4.870;2022-07-29T08:55:56;5.90;;;1.67;;
46330;SDS011;32049;52.346;4.870;2022-07-29T08:58:47;4.07;;;2.00;;
46330;SDS011;32049;52.346;4.870;2022-07-29T09:01:39;5.80;;;1.97;;
46330;SDS011;32049;52.346;4.870;2022-07-29T09:04:33;3.95;;;1.88;;
46330;SDS011;32049;52.346;4.870;2022-07-29T09:07:22;2.90;;;1.63;;
46330;SDS011;32049;52.346;4.870;2022-07-29T09:10:23;4.53;;;1.80;;
46330;SDS011;32049;52.346;4.870;2022-07-29T09:13:12;6.37;;;1.83;;
46330;SDS011;32049;52.346;4.870;2022-07-29T09:16:00;6.17;;;1.93;;
46330;SDS011;32049;52.346;4.870;2022-07-29T09:19:23;4.03;;;1.87;;
46330;SDS011;32049;52.346;4.870;2022-07-29T09:22:31;5.23;;;2.33;;
46330;SDS011;32049;52.346;4.870;2022-07-29T09:25:39;9.13;;;2.03;;
46330;SDS011;32049;52.346;4.870;2022-07-29T09:28:31;9.77;;;2.50;;
46330;SDS011;32049;52.346;4.870;2022-07-29T09:31:33;8.83;;;2.03;;
46330;SDS011;32049;52.346;4.870;2022-07-29T09:34:27;4.80;;;2.30;;
46330;SDS011;32049;52.346;4.870;2022-07-29T09:37:28;8.87;;;2.03;;
46330;SDS011;32049;52.346;4.870;2022-07-29T09:40:27;3.63;;;2.00;;
46330;SDS011;32049;52.346;4.870;2022-07-29T09:44:12;5.93;;;1.83;;
46330;SDS011;32049;52.346;4.870;2022-07-29T09:47:21;4.73;;;1.80;;
46330;SDS011;32049;52.346;4.870;2022-07-29T09:50:39;3.40;;;2.00;;
46330;SDS011;32049;52.346;4.870;2022-07-29T09:53:37;4.33;;;1.87;;
46330;SDS011;32049;52.346;4.870;2022-07-29T09:56:42;7.23;;;1.50;;
46330;SDS011;32049;52.346;4.870;2022-07-29T10:00:10;6.37;;;1.67;;
46330;SDS011;32049;52.346;4.870;2022-07-29T10:03:27;4.87;;;1.80;;
46330;SDS011;32049;52.346;4.870;2022-07-29T10:06:24;2.90;;;1.60;;
46330;SDS011;32049;52.346;4.870;2022-07-29T10:09:13;5.10;;;1.90;;
46330;SDS011;32049;52.346;4.870;2022-07-29T10:12:13;3.67;;;1.77;;
46330;SDS011;32049;52.346;4.870;2022-07-29T10:15:16;4.72;;;1.85;;
46330;SDS011;32049;52.346;4.870;2022-07-29T10:18:30;6.23;;;1.77;;
46330;SDS011;32049;52.346;4.870;2022-07-29T10:21:21;4.22;;;2.05;;
46330;SDS011;32049;52.346;4.870;2022-07-29T10:24:22;7.33;;;1.80;;
46330;SDS011;32049;52.346;4.870;2022-07-29T10:27:19;2.70;;;1.70;;
46330;SDS011;32049;52.346;4.870;2022-07-29T10:30:10;5.13;;;1.57;;
46330;SDS011;32049;52.346;4.870;2022-07-29T10:42:48;3.37;;;1.80;;
46330;SDS011;32049;52.346;4.870;2022-07-29T10:45:41;6.20;;;2.03;;
46330;SDS011;32049;52.346;4.870;2022-07-29T10:48:31;4.90;;;2.17;;
46330;SDS011;32049;52.346;4.870;2022-07-29T10:51:22;8.03;;;2.27;;
46330;SDS011;32049;52.346;4.870;2022-07-29T10:54:35;4.20;;;1.93;;
46330;SDS011;32049;52.346;4.870;2022-07-29T10:57:34;4.57;;;1.83;;
46330;SDS011;32049;52.346;4.870;2022-07-29T11:00:48;4.57;;;2.10;;
46330;SDS011;32049;52.346;4.870;2022-07-29T11:03:42;4.35;;;1.92;;
46330;SDS011;32049;52.346;4.870;2022-07-29T11:07:26;5.35;;;2.00;;
46330;SDS011;32049;52.346;4.870;2022-07-29T11:13:22;3.95;;;1.50;;
46330;SDS011;32049;52.346;4.870;2022-07-29T11:19:46;5.45;;;1.50;;
46330;SDS011;32049;52.346;4.870;2022-07-29T11:22:38;4.30;;;1.80;;
46330;SDS011;32049;52.346;4.870;2022-07-29T11:25:33;5.65;;;1.42;;
46330;SDS011;32049;52.346;4.870;2022-07-29T11:29:20;4.07;;;1.77;;
46330;SDS011;32049;52.346;4.870;2022-07-29T11:32:13;8.60;;;1.73;;
46330;SDS011;32049;52.346;4.870;2022-07-29T11:35:14;4.47;;;1.52;;
46330;SDS011;32049;52.346;4.870;2022-07-29T11:38:30;6.80;;;1.83;;
46330;SDS011;32049;52.346;4.870;2022-07-29T11:41:25;6.13;;;1.80;;
46330;SDS011;32049;52.346;4.870;2022-07-29T11:44:18;6.20;;;1.70;;
46330;SDS011;32049;52.346;4.870;2022-07-29T11:47:26;6.85;;;2.05;;
46330;SDS011;32049;52.346;4.870;2022-07-29T11:50:31;5.20;;;2.13;;
46330;SDS011;32049;52.346;4.870;2022-07-29T11:53:22;4.43;;;1.55;;
46330;SDS011;32049;52.346;4.870;2022-07-29T11:56:09;3.63;;;1.90;;
46330;SDS011;32049;52.346;4.870;2022-07-29T11:59:06;7.85;;;1.90;;
46330;SDS011;32049;52.346;4.870;2022-07-29T12:05:09;2.53;;;1.67;;
46330;SDS011;32049;52.346;4.870;2022-07-29T12:08:04;5.88;;;1.92;;
46330;SDS011;32049;52.346;4.870;2022-07-29T12:11:00;4.60;;;1.77;;
46330;SDS011;32049;52.346;4.870;2022-07-29T12:13:50;6.05;;;1.75;;
46330;SDS011;32049;52.346;4.870;2022-07-29T12:16:39;8.25;;;1.90;;
46330;SDS011;32049;52.346;4.870;2022-07-29T12:19:27;3.95;;;1.65;;
46330;SDS011;32049;52.346;4.870;2022-07-29T12:22:26;9.15;;;2.30;;
46330;SDS011;32049;52.346;4.870;2022-07-29T12:25:18;7.63;;;2.35;;
46330;SDS011;32049;52.346;4.870;2022-07-29T12:28:22;5.55;;;2.20;;
46330;SDS011;32049;52.346;4.870;2022-07-29T12:31:14;5.65;;;2.97;;
46330;SDS011;32049;52.346;4.870;2022-07-29T12:34:23;8.05;;;2.60;;
46330;SDS011;32049;52.346;4.870;2022-07-29T12:37:13;4.43;;;2.70;;
46330;SDS011;32049;52.346;4.870;2022-07-29T12:40:02;4.85;;;3.38;;
46330;SDS011;32049;52.346;4.870;2022-07-29T12:43:05;5.32;;;2.60;;
46330;SDS011;32049;52.346;4.870;2022-07-29T12:46:13;7.47;;;3.42;;
46330;SDS011;32049;52.346;4.870;2022-07-29T12:49:06;5.63;;;2.50;;
46330;SDS011;32049;52.346;4.870;2022-07-29T12:51:59;8.50;;;3.67;;
46330;SDS011;32049;52.346;4.870;2022-07-29T12:54:48;5.22;;;3.00;;
46330;SDS011;32049;52.346;4.870;2022-07-29T12:57:47;4.47;;;2.65;;
46330;SDS011;32049;52.346;4.870;2022-07-29T13:00:49;4.70;;;3.08;;
46330;SDS011;32049;52.346;4.870;2022-07-29T13:04:03;6.55;;;2.85;;
46330;SDS011;32049;52.346;4.870;2022-07-29T13:07:06;7.00;;;3.17;;
46330;SDS011;32049;52.346;4.870;2022-07-29T13:10:13;7.32;;;3.67;;
46330;SDS011;32049;52.346;4.870;2022-07-29T13:13:11;5.10;;;3.25;;
46330;SDS011;32049;52.346;4.870;2022-07-29T13:16:13;6.30;;;2.90;;
46330;SDS011;32049;52.346;4.870;2022-07-29T13:19:07;7.47;;;3.30;;
46330;SDS011;32049;52.346;4.870;2022-07-29T14:13:13;3.92;;;1.75;;
46330;SDS011;32049;52.346;4.870;2022-07-29T14:16:11;10.13;;;2.72;;
46330;SDS011;32049;52.346;4.870;2022-07-29T14:19:02;5.30;;;2.35;;
46330;SDS011;32049;52.346;4.870;2022-07-29T14:21:50;5.75;;;2.60;;
46330;SDS011;32049;52.346;4.870;2022-07-29T14:24:44;4.82;;;1.90;;
46330;SDS011;32049;52.346;4.870;2022-07-29T14:28:03;7.20;;;1.92;;
46330;SDS011;32049;52.346;4.870;2022-07-29T14:30:53;7.30;;;2.47;;
46330;SDS011;32049;52.346;4.870;2022-07-29T14:33:49;6.13;;;2.20;;
46330;SDS011;32049;52.346;4.870;2022-07-29T14:36:46;5.72;;;2.20;;
46330;SDS011;32049;52.346;4.870;2022-07-29T14:39:36;10.98;;;2.92;;
46330;SDS011;32049;52.346;4.870;2022-07-29T14:42:30;7.55;;;1.80;;
46330;SDS011;32049;52.346;4.870;2022-07-29T14:45:25;6.82;;;1.73;;
46330;SDS011;32049;52.346;4.870;2022-07-29T14:48:15;7.03;;;2.13;;
46330;SDS011;32049;52.346;4.870;2022-07-29T14:51:19;4.40;;;2.33;;
46330;SDS011;32049;52.346;4.870;2022-07-29T14:54:38;5.20;;;2.28;;
46330;SDS011;32049;52.346;4.870;2022-07-29T14:57:26;8.90;;;2.17;;
46330;SDS011;32049;52.346;4.870;2022-07-29T15:00:15;9.13;;;2.25;;
46330;SDS011;32049;52.346;4.870;2022-07-29T15:03:13;6.53;;;1.95;;
46330;SDS011;32049;52.346;4.870;2022-07-29T15:06:10;4.55;;;2.08;;
46330;SDS011;32049;52.346;4.870;2022-07-29T15:08:59;7.25;;;1.88;;
46330;SDS011;32049;52.346;4.870;2022-07-29T15:11:46;6.97;;;2.00;;
46330;SDS011;32049;52.346;4.870;2022-07-29T15:14:35;5.60;;;2.17;;
46330;SDS011;32049;52.346;4.870;2022-07-29T15:17:29;7.07;;;2.10;;
46330;SDS011;32049;52.346;4.870;2022-07-29T15:20:24;4.65;;;1.95;;
46330;SDS011;32049;52.346;4.870;2022-07-29T15:23:16;2.90;;;1.63;;
46330;SDS011;32049;52.346;4.870;2022-07-29T15:26:04;6.95;;;1.77;;
46330;SDS011;32049;52.346;4.870;2022-07-29T15:29:01;3.78;;;1.55;;
46330;SDS011;32049;52.346;4.870;2022-07-29T15:31:49;6.20;;;2.03;;
46330;SDS011;32049;52.346;4.870;2022-07-29T15:34:47;6.75;;;1.83;;
46330;SDS011;32049;52.346;4.870;2022-07-29T15:37:38;5.93;;;2.17;;
46330;SDS011;32049;52.346;4.870;2022-07-29T15:40:38;4.30;;;2.03;;
46330;SDS011;32049;52.346;4.870;2022-07-29T15:43:45;4.97;;;1.63;;
46330;SDS011;32049;52.346;4.870;2022-07-29T15:46:46;5.25;;;1.65;;
46330;SDS011;32049;52.346;4.870;2022-07-29T15:49:55;5.50;;;1.92;;
46330;SDS011;32049;52.346;4.870;2022-07-29T15:52:46;4.63;;;2.08;;
46330;SDS011;32049;52.346;4.870;2022-07-29T15:55:38;4.60;;;1.88;;
46330;SDS011;32049;52.346;4.870;2022-07-29T15:58:30;8.43;;;1.95;;
46330;SDS011;32049;52.346;4.870;2022-07-29T16:01:18;5.57;;;1.45;;
46330;SDS011;32049;52.346;4.870;2022-07-29T16:04:08;5.55;;;2.35;;
46330;SDS011;32049;52.346;4.870;2022-07-29T16:07:00;7.68;;;2.20;;
46330;SDS011;32049;52.346;4.870;2022-07-29T16:09:49;8.35;;;2.22;;
46330;SDS011;32049;52.346;4.870;2022-07-29T16:12:39;6.13;;;2.38;;
46330;SDS011;32049;52.346;4.870;2022-07-29T16:15:27;3.83;;;2.30;;
46330;SDS011;32049;52.346;4.870;2022-07-29T16:18:15;6.97;;;2.17;;
46330;SDS011;32049;52.346;4.870;2022-07-29T16:24:55;6.13;;;2.95;;
46330;SDS011;32049;52.346;4.870;2022-07-29T16:27:43;8.13;;;2.83;;
46330;SDS011;32049;52.346;4.870;2022-07-29T16:30:34;5.05;;;2.30;;
46330;SDS011;32049;52.346;4.870;2022-07-29T16:33:22;12.10;;;3.90;;
46330;SDS011;32049;52.346;4.870;2022-07-29T16:36:10;10.05;;;3.00;;
46330;SDS011;32049;52.346;4.870;2022-07-29T16:39:05;10.00;;;4.65;;
46330;SDS011;32049;52.346;4.870;2022-07-29T16:41:52;4.72;;;2.25;;
46330;SDS011;32049;52.346;4.870;2022-07-29T16:44:51;7.47;;;3.38;;
46330;SDS011;32049;52.346;4.870;2022-07-29T16:47:40;9.77;;;3.72;;
46330;SDS011;32049;52.346;4.870;2022-07-29T16:50:28;8.95;;;3.45;;
46330;SDS011;32049;52.346;4.870;2022-07-29T16:53:17;6.10;;;3.00;;
46330;SDS011;32049;52.346;4.870;2022-07-29T16:56:08;6.60;;;2.83;;
46330;SDS011;32049;52.346;4.870;2022-07-29T16:59:00;5.60;;;2.28;;
46330;SDS011;32049;52.346;4.870;2022-07-29T17:01:50;9.80;;;2.97;;
46330;SDS011;32049;52.346;4.870;2022-07-29T17:04:38;11.05;;;2.95;;
46330;SDS011;32049;52.346;4.870;2022-07-29T17:07:31;13.43;;;3.85;;
46330;SDS011;32049;52.346;4.870;2022-07-29T17:10:23;9.73;;;3.47;;
46330;SDS011;32049;52.346;4.870;2022-07-29T17:13:16;9.02;;;2.90;;
46330;SDS011;32049;52.346;4.870;2022-07-29T17:16:04;5.65;;;2.67;;
46330;SDS011;32049;52.346;4.870;2022-07-29T17:18:52;12.18;;;3.88;;
46330;SDS011;32049;52.346;4.870;2022-07-29T17:21:41;8.68;;;3.35;;
46330;SDS011;32049;52.346;4.870;2022-07-29T17:24:35;8.73;;;3.08;;
46330;SDS011;32049;52.346;4.870;2022-07-29T17:27:26;16.40;;;3.08;;
46330;SDS011;32049;52.346;4.870;2022-07-29T17:30:17;8.73;;;2.83;;
46330;SDS011;32049;52.346;4.870;2022-07-29T17:33:10;8.27;;;2.13;;
46330;SDS011;32049;52.346;4.870;2022-07-29T17:36:11;6.40;;;2.40;;
46330;SDS011;32049;52.346;4.870;2022-07-29T17:39:15;9.30;;;2.90;;
46330;SDS011;32049;52.346;4.870;2022-07-29T17:42:09;6.90;;;1.92;;
46330;SDS011;32049;52.346;4.870;2022-07-29T17:45:02;12.93;;;1.80;;
46330;SDS011;32049;52.346;4.870;2022-07-29T17:48:05;12.20;;;3.15;;
46330;SDS011;32049;52.346;4.870;2022-07-29T17:51:01;10.90;;;2.55;;
46330;SDS011;32049;52.346;4.870;2022-07-29T17:54:02;6.90;;;1.95;;
46330;SDS011;32049;52.346;4.870;2022-07-29T17:56:58;7.47;;;2.08;;
46330;SDS011;32049;52.346;4.870;2022-07-29T17:59:52;5.25;;;1.70;;
46330;SDS011;32049;52.346;4.870;2022-07-29T18:02:56;9.70;;;1.92;;
46330;SDS011;32049;52.346;4.870;2022-07-29T18:05:47;3.58;;;1.67;;
46330;SDS011;32049;52.346;4.870;2022-07-29T18:08:37;6.35;;;2.17;;
46330;SDS011;32049;52.346;4.870;2022-07-29T18:11:42;7.20;;;2.47;;
46330;SDS011;32049;52.346;4.870;2022-07-29T18:14:33;8.93;;;2.42;;
46330;SDS011;32049;52.346;4.870;2022-07-29T18:17:22;8.18;;;2.17;;
46330;SDS011;32049;52.346;4.870;2022-07-29T18:20:38;10.55;;;2.53;;
46330;SDS011;32049;52.346;4.870;2022-07-29T18:23:50;8.85;;;2.25;;
46330;SDS011;32049;52.346;4.870;2022-07-29T18:38:40;8.63;;;2.50;;
46330;SDS011;32049;52.346;4.870;2022-07-29T18:41:35;8.53;;;2.50;;
46330;SDS011;32049;52.346;4.870;2022-07-29T18:44:41;12.48;;;3.20;;
46330;SDS011;32049;52.346;4.870;2022-07-29T18:47:35;8.07;;;2.40;;
46330;SDS011;32049;52.346;4.870;2022-07-29T18:50:27;10.93;;;2.77;;
46330;SDS011;32049;52.346;4.870;2022-07-29T18:53:18;8.17;;;2.30;;
46330;SDS011;32049;52.346;4.870;2022-07-29T18:56:11;6.43;;;2.10;;
46330;SDS011;32049;52.346;4.870;2022-07-29T18:59:06;7.47;;;2.50;;
46330;SDS011;32049;52.346;4.870;2022-07-29T19:02:05;6.77;;;2.30;;
46330;SDS011;32049;52.346;4.870;2022-07-29T19:04:56;7.10;;;1.93;;
46330;SDS011;32049;52.346;4.870;2022-07-29T19:07:46;9.10;;;2.50;;
46330;SDS011;32049;52.346;4.870;2022-07-29T19:10:33;11.60;;;2.33;;
46330;SDS011;32049;52.346;4.870;2022-07-29T19:13:27;7.60;;;2.27;;
46330;SDS011;32049;52.346;4.870;2022-07-29T19:16:17;7.53;;;2.27;;
46330;SDS011;32049;52.346;4.870;2022-07-29T19:19:06;4.87;;;2.10;;
46330;SDS011;32049;52.346;4.870;2022-07-29T19:21:54;9.87;;;2.80;;
46330;SDS011;32049;52.346;4.870;2022-07-29T19:24:47;7.67;;;3.07;;
46330;SDS011;32049;52.346;4.870;2022-07-29T19:27:47;9.13;;;2.80;;
46330;SDS011;32049;52.346;4.870;2022-07-29T19:30:38;8.90;;;2.60;;
46330;SDS011;32049;52.346;4.870;2022-07-29T19:33:33;6.13;;;2.63;;
46330;SDS011;32049;52.346;4.870;2022-07-29T19:36:24;11.90;;;3.10;;
46330;SDS011;32049;52.346;4.870;2022-07-29T19:39:17;8.80;;;2.77;;
46330;SDS011;32049;52.346;4.870;2022-07-29T19:42:23;6.07;;;2.10;;
46330;SDS011;32049;52.346;4.870;2022-07-29T19:45:11;7.57;;;2.23;;
46330;SDS011;32049;52.346;4.870;2022-07-29T19:48:05;11.03;;;2.47;;
46330;SDS011;32049;52.346;4.870;2022-07-29T19:50:56;7.60;;;2.80;;
46330;SDS011;32049;52.346;4.870;2022-07-29T19:53:52;11.63;;;2.73;;
46330;SDS011;32049;52.346;4.870;2022-07-29T19:56:51;8.03;;;2.70;;
46330;SDS011;32049;52.346;4.870;2022-07-29T20:02:59;8.03;;;2.20;;
46330;SDS011;32049;52.346;4.870;2022-07-29T20:05:57;8.67;;;2.80;;
46330;SDS011;32049;52.346;4.870;2022-07-29T20:08:46;8.13;;;2.60;;
46330;SDS011;32049;52.346;4.870;2022-07-29T20:11:51;6.10;;;2.70;;
46330;SDS011;32049;52.346;4.870;2022-07-29T20:14:50;10.07;;;2.63;;
46330;SDS011;32049;52.346;4.870;2022-07-29T20:17:42;12.27;;;2.97;;
46330;SDS011;32049;52.346;4.870;2022-07-29T20:20:42;7.57;;;2.30;;
46330;SDS011;32049;52.346;4.870;2022-07-29T20:23:40;8.73;;;2.20;;
46330;SDS011;32049;52.346;4.870;2022-07-29T20:26:32;9.70;;;2.80;;
46330;SDS011;32049;52.346;4.870;2022-07-29T20:29:28;8.80;;;2.80;;
46330;SDS011;32049;52.346;4.870;2022-07-29T20:32:21;6.20;;;2.33;;
46330;SDS011;32049;52.346;4.870;2022-07-29T20:35:09;7.93;;;2.50;;
46330;SDS011;32049;52.346;4.870;2022-07-29T20:37:57;11.80;;;2.83;;
46330;SDS011;32049;52.346;4.870;2022-07-29T20:40:46;10.87;;;2.27;;
46330;SDS011;32049;52.346;4.870;2022-07-29T20:43:33;8.40;;;2.20;;
46330;SDS011;32049;52.346;4.870;2022-07-29T20:46:24;12.93;;;2.57;;
46330;SDS011;32049;52.346;4.870;2022-07-29T20:49:15;5.80;;;2.37;;
46330;SDS011;32049;52.346;4.870;2022-07-29T20:52:03;10.10;;;2.83;;
46330;SDS011;32049;52.346;4.870;2022-07-29T20:54:51;8.60;;;2.50;;
46330;SDS011;32049;52.346;4.870;2022-07-29T20:57:39;7.97;;;2.30;;
46330;SDS011;32049;52.346;4.870;2022-07-29T21:00:27;10.63;;;3.23;;
46330;SDS011;32049;52.346;4.870;2022-07-29T21:03:21;5.93;;;2.60;;
46330;SDS011;32049;52.346;4.870;2022-07-29T21:06:08;10.63;;;2.77;;
46330;SDS011;32049;52.346;4.870;2022-07-29T21:09:03;12.52;;;2.85;;
46330;SDS011;32049;52.346;4.870;2022-07-29T21:11:51;8.30;;;3.20;;
46330;SDS011;32049;52.346;4.870;2022-07-29T21:14:39;5.90;;;2.00;;
46330;SDS011;32049;52.346;4.870;2022-07-29T21:17:27;8.80;;;2.93;;
46330;SDS011;32049;52.346;4.870;2022-07-29T21:20:17;13.00;;;3.37;;
46330;SDS011;32049;52.346;4.870;2022-07-29T21:23:06;14.57;;;3.57;;
46330;SDS011;32049;52.346;4.870;2022-07-29T21:25:53;8.20;;;2.83;;
46330;SDS011;32049;52.346;4.870;2022-07-29T21:28:42;7.13;;;3.10;;
46330;SDS011;32049;52.346;4.870;2022-07-29T21:31:36;9.73;;;2.83;;
46330;SDS011;32049;52.346;4.870;2022-07-29T21:34:24;7.87;;;3.00;;
